Time;durP1;ratioP1;P1;durP2;ratioP2;P2;SDS_P1;SDS_P2;PMS_P1;PMS_P2;Temp;Humidity;BMP_temperature;BMP_pressure;BME280_temperature;BME280_humidity;BME280_pressure;Samples;Min_cycle;Max_cycle;Signal;HPM_P1;HPM_P2
2021/08/14 00:00:37;;;;;;;15.05;4.85;;;14.00;91.30;;;;;;5043579;28;20927;-67
2021/08/14 00:03:03;;;;;;;13.75;4.63;;;14.00;91.60;;;;;;5043003;28;20457;-68
2021/08/14 00:05:29;;;;;;;11.05;4.47;;;13.90;91.60;;;;;;5038372;28;20021;-69
2021/08/14 00:07:55;;;;;;;12.95;4.75;;;13.90;91.80;;;;;;5043693;28;20049;-67
2021/08/14 00:10:20;;;;;;;13.43;4.43;;;13.80;91.90;;;;;;5026807;28;20035;-71
2021/08/14 00:12:46;;;;;;;11.98;4.63;;;13.80;91.90;;;;;;5042795;28;20405;-68
2021/08/14 00:15:12;;;;;;;10.77;4.35;;;13.80;92.00;;;;;;5043144;28;20086;-69
2021/08/14 00:17:37;;;;;;;12.32;4.65;;;13.80;92.20;;;;;;5004768;28;1089789;-71
2021/08/14 00:20:04;;;;;;;18.13;5.22;;;13.70;92.60;;;;;;5043496;28;20115;-68
2021/08/14 00:22:30;;;;;;;10.95;4.10;;;13.70;92.60;;;;;;5047752;28;20032;-71
2021/08/14 00:24:55;;;;;;;9.30;4.93;;;13.60;92.10;;;;;;5041289;28;20099;-68
2021/08/14 00:27:21;;;;;;;11.95;4.78;;;13.70;92.70;;;;;;5033227;28;20114;-70
2021/08/14 00:29:47;;;;;;;11.50;4.78;;;13.70;92.70;;;;;;5042814;28;20036;-68
2021/08/14 00:32:13;;;;;;;12.68;4.60;;;13.70;92.70;;;;;;5044711;28;20293;-69
2021/08/14 00:34:38;;;;;;;15.10;5.18;;;13.70;92.20;;;;;;5042818;28;20029;-68
2021/08/14 00:37:04;;;;;;;14.68;5.20;;;13.70;92.70;;;;;;5047419;28;20433;-69
2021/08/14 00:39:30;;;;;;;13.15;4.93;;;13.70;92.60;;;;;;5046318;28;20041;-68
2021/08/14 00:41:55;;;;;;;16.58;4.85;;;13.70;92.80;;;;;;5043279;28;20108;-71
2021/08/14 00:44:21;;;;;;;14.45;5.25;;;13.80;93.10;;;;;;5043538;28;20090;-70
2021/08/14 00:46:47;;;;;;;14.45;5.10;;;13.70;92.60;;;;;;5042773;28;20049;-68
2021/08/14 00:49:13;;;;;;;18.42;5.28;;;13.80;92.70;;;;;;5044137;28;20040;-67
2021/08/14 00:51:39;;;;;;;15.45;4.57;;;13.80;92.40;;;;;;5048846;28;20036;-71
2021/08/14 00:54:04;;;;;;;11.40;4.43;;;13.80;92.40;;;;;;5043271;28;20511;-68
2021/08/14 00:56:30;;;;;;;15.80;5.03;;;13.90;92.90;;;;;;5042318;28;20581;-68
2021/08/14 00:58:57;;;;;;;13.85;4.80;;;13.90;92.50;;;;;;5041758;28;20031;-70
2021/08/14 01:01:24;;;;;;;11.57;4.40;;;13.90;92.70;;;;;;5043385;28;20545;-69
2021/08/14 01:03:56;;;;;;;9.75;4.00;;;13.90;92.30;;;;;;5039108;28;20085;-67
2021/08/14 01:06:23;;;;;;;15.10;5.18;;;13.90;92.30;;;;;;5026388;28;20025;-67
2021/08/14 01:08:50;;;;;;;11.80;4.88;;;13.90;92.50;;;;;;5044227;28;20044;-68
2021/08/14 01:11:17;;;;;;;15.55;4.95;;;14.00;93.00;;;;;;5043292;28;20112;-68
2021/08/14 01:13:44;;;;;;;12.10;4.93;;;14.00;92.80;;;;;;5042249;28;20037;-67
2021/08/14 01:16:10;;;;;;;13.75;4.97;;;14.00;92.80;;;;;;5029100;28;20048;-68
2021/08/14 01:18:40;;;;;;;13.55;4.82;;;14.00;92.50;;;;;;5047666;28;20024;-68
2021/08/14 01:21:06;;;;;;;11.25;4.85;;;14.00;92.80;;;;;;5043282;28;20199;-67
2021/08/14 01:23:32;;;;;;;11.30;4.28;;;14.00;92.70;;;;;;5043425;28;20108;-68
2021/08/14 01:26:09;;;;;;;11.65;4.55;;;14.00;92.90;;;;;;5044093;28;20462;-66
2021/08/14 01:28:36;;;;;;;13.00;5.05;;;14.00;92.90;;;;;;5042939;28;20043;-67
2021/08/14 01:31:08;;;;;;;14.57;4.43;;;14.00;92.70;;;;;;5043325;28;20053;-68
2021/08/14 01:33:36;;;;;;;13.02;4.60;;;14.00;92.90;;;;;;5049171;28;20063;-68
2021/08/14 01:36:03;;;;;;;14.40;4.88;;;13.90;93.00;;;;;;5037941;28;20052;-70
2021/08/14 01:38:29;;;;;;;14.68;4.85;;;14.00;93.20;;;;;;5040471;28;20334;-68
2021/08/14 01:40:55;;;;;;;14.43;4.50;;;14.00;93.20;;;;;;5043192;28;20069;-68
2021/08/14 01:43:20;;;;;;;15.63;5.13;;;14.00;92.90;;;;;;5042589;28;20029;-68
2021/08/14 01:45:50;;;;;;;7.57;4.07;;;14.00;93.00;;;;;;5042814;28;20025;-68
2021/08/14 01:48:17;;;;;;;15.90;4.95;;;13.90;93.10;;;;;;5043335;28;20037;-67
2021/08/14 01:50:43;;;;;;;11.00;5.28;;;14.00;93.00;;;;;;5048058;28;20232;-69
2021/08/14 01:53:08;;;;;;;12.30;4.85;;;14.00;93.20;;;;;;5040747;28;20528;-69
2021/08/14 01:55:34;;;;;;;11.18;4.90;;;13.90;93.00;;;;;;5036724;28;20037;-69
2021/08/14 01:58:01;;;;;;;12.38;5.05;;;14.00;93.00;;;;;;5024257;28;20036;-68
2021/08/14 02:00:27;;;;;;;16.38;5.55;;;14.00;93.00;;;;;;5048900;28;20124;-69
2021/08/14 02:02:53;;;;;;;16.08;5.00;;;14.00;93.00;;;;;;5042291;28;20489;-69
2021/08/14 02:05:18;;;;;;;10.73;5.10;;;13.90;92.90;;;;;;5042956;28;20040;-68
2021/08/14 02:07:44;;;;;;;15.55;5.18;;;14.00;93.30;;;;;;5027277;28;20029;-68
2021/08/14 02:10:10;;;;;;;12.73;4.88;;;13.90;93.00;;;;;;5048108;28;20412;-68
2021/08/14 02:12:36;;;;;;;13.88;4.90;;;13.90;93.10;;;;;;5045673;28;20044;-69
2021/08/14 02:15:01;;;;;;;14.60;4.93;;;14.00;93.00;;;;;;5046100;28;20350;-68
2021/08/14 02:17:27;;;;;;;14.80;5.07;;;14.00;92.90;;;;;;5045268;28;20025;-69
2021/08/14 02:19:52;;;;;;;15.80;5.65;;;13.90;93.00;;;;;;5046270;28;20345;-68
2021/08/14 02:22:18;;;;;;;14.93;5.53;;;13.90;92.90;;;;;;5046296;28;20028;-70
2021/08/14 02:24:44;;;;;;;17.50;4.45;;;13.90;92.90;;;;;;5046153;28;20032;-68
2021/08/14 02:27:09;;;;;;;13.00;4.88;;;13.80;93.00;;;;;;5044550;28;20454;-68
2021/08/14 02:29:35;;;;;;;13.23;4.97;;;13.80;93.30;;;;;;5044671;28;20048;-68
2021/08/14 02:32:01;;;;;;;15.15;5.72;;;13.80;93.40;;;;;;5045937;28;20247;-68
2021/08/14 02:34:27;;;;;;;12.13;4.65;;;13.70;93.40;;;;;;5046344;28;20535;-71
2021/08/14 02:36:53;;;;;;;11.77;4.95;;;13.80;93.40;;;;;;5046116;28;20090;-68
2021/08/14 02:39:19;;;;;;;13.73;5.05;;;13.70;93.50;;;;;;5046180;28;20384;-68
2021/08/14 02:41:44;;;;;;;18.13;5.05;;;13.80;93.60;;;;;;5045080;28;20124;-67
2021/08/14 02:44:10;;;;;;;13.23;5.70;;;13.70;93.50;;;;;;5045443;28;20120;-68
2021/08/14 02:46:36;;;;;;;13.57;5.45;;;13.70;93.60;;;;;;5044791;28;20564;-68
2021/08/14 02:49:02;;;;;;;17.55;4.72;;;13.80;93.60;;;;;;5051866;28;20488;-69
2021/08/14 02:51:27;;;;;;;12.48;4.90;;;13.80;93.80;;;;;;5045196;28;20469;-68
2021/08/14 02:53:53;;;;;;;11.95;4.70;;;13.90;93.60;;;;;;5038354;28;20029;-70
2021/08/14 02:56:19;;;;;;;11.60;5.45;;;13.90;93.60;;;;;;5027004;28;20033;-69
2021/08/14 02:58:44;;;;;;;14.18;5.32;;;13.90;93.40;;;;;;5042114;28;20029;-69
2021/08/14 03:01:10;;;;;;;12.32;5.20;;;13.90;93.50;;;;;;5044660;28;20025;-68
2021/08/14 03:03:36;;;;;;;12.90;4.65;;;13.90;93.50;;;;;;5045660;28;20061;-68
2021/08/14 03:06:01;;;;;;;12.65;5.35;;;13.90;93.40;;;;;;5047415;28;20025;-69
2021/08/14 03:08:27;;;;;;;14.57;4.82;;;13.90;93.50;;;;;;5052426;28;20040;-68
2021/08/14 03:10:52;;;;;;;14.13;4.38;;;13.90;93.40;;;;;;5044300;28;20558;-68
2021/08/14 03:13:18;;;;;;;15.30;4.65;;;13.90;93.40;;;;;;5045173;28;20036;-70
2021/08/14 03:15:44;;;;;;;14.82;5.95;;;14.00;93.40;;;;;;5045144;28;20073;-67
2021/08/14 03:18:10;;;;;;;11.88;5.00;;;14.00;93.30;;;;;;5044996;28;20084;-69
2021/08/14 03:20:35;;;;;;;12.45;4.50;;;14.00;93.30;;;;;;5044227;28;20051;-68
2021/08/14 03:23:01;;;;;;;19.83;5.45;;;14.00;93.20;;;;;;5045566;28;20053;-69
2021/08/14 03:25:27;;;;;;;12.10;4.68;;;14.00;93.20;;;;;;5042879;28;20021;-69
2021/08/14 03:27:53;;;;;;;13.48;4.68;;;14.00;93.20;;;;;;5039297;28;20025;-68
2021/08/14 03:30:20;;;;;;;12.68;4.57;;;14.00;93.20;;;;;;5044194;28;20029;-69
2021/08/14 03:32:46;;;;;;;12.90;4.10;;;14.00;93.20;;;;;;5045200;28;20086;-68
2021/08/14 03:35:13;;;;;;;15.85;5.07;;;14.00;93.20;;;;;;5044587;28;20424;-68
2021/08/14 03:37:40;;;;;;;11.50;4.55;;;14.00;93.20;;;;;;5047219;28;20032;-68
2021/08/14 03:40:07;;;;;;;13.88;5.07;;;14.00;93.30;;;;;;5049615;28;20028;-68
2021/08/14 03:42:33;;;;;;;15.40;5.38;;;14.00;93.20;;;;;;5044013;28;20338;-69
2021/08/14 03:44:58;;;;;;;10.98;5.00;;;14.00;93.10;;;;;;5049603;28;20029;-67
2021/08/14 03:47:24;;;;;;;9.73;4.47;;;14.00;93.30;;;;;;5044156;28;20442;-68
2021/08/14 03:49:50;;;;;;;11.23;4.88;;;14.10;93.10;;;;;;5047021;28;20036;-68
2021/08/14 03:52:15;;;;;;;14.45;4.78;;;14.10;93.20;;;;;;5042339;28;20477;-69
2021/08/14 03:54:43;;;;;;;17.42;5.10;;;14.10;93.20;;;;;;5044005;28;20112;-69
2021/08/14 03:57:09;;;;;;;13.63;4.72;;;14.10;93.20;;;;;;5043600;28;20025;-69
2021/08/14 03:59:34;;;;;;;11.85;4.75;;;14.00;93.20;;;;;;5044180;28;20162;-67
2021/08/14 04:02:00;;;;;;;10.52;4.78;;;14.10;93.20;;;;;;5043879;28;20036;-69
2021/08/14 04:04:26;;;;;;;10.93;5.13;;;14.10;93.30;;;;;;5040636;28;20452;-68
2021/08/14 04:06:52;;;;;;;15.98;4.68;;;14.10;93.10;;;;;;5022272;28;20039;-68
2021/08/14 04:09:17;;;;;;;12.23;4.80;;;14.10;93.30;;;;;;5047001;28;20420;-69
2021/08/14 04:11:44;;;;;;;11.38;4.75;;;14.10;93.40;;;;;;5043909;28;20033;-68
2021/08/14 04:14:10;;;;;;;12.10;5.03;;;14.10;93.30;;;;;;5043485;28;20063;-71
2021/08/14 04:16:35;;;;;;;23.48;4.85;;;14.10;93.30;;;;;;5044166;28;20500;-68
2021/08/14 04:19:01;;;;;;;13.93;4.63;;;14.10;93.30;;;;;;5041991;28;20040;-69
2021/08/14 04:21:27;;;;;;;18.67;5.32;;;14.20;93.20;;;;;;5046728;28;20184;-70
2021/08/14 04:23:52;;;;;;;12.52;4.75;;;14.20;93.10;;;;;;5041150;28;20033;-70
2021/08/14 04:26:18;;;;;;;16.02;5.00;;;14.20;93.10;;;;;;5042961;28;20412;-68
2021/08/14 04:28:43;;;;;;;16.02;5.43;;;14.20;93.20;;;;;;5030248;28;20040;-68
2021/08/14 04:31:09;;;;;;;13.63;4.72;;;14.20;93.20;;;;;;5042945;28;20116;-68
2021/08/14 04:33:35;;;;;;;13.70;4.88;;;14.20;93.20;;;;;;5041663;28;20041;-69
2021/08/14 04:36:00;;;;;;;16.75;5.57;;;14.20;93.00;;;;;;5032978;28;20434;-68
2021/08/14 04:38:26;;;;;;;15.32;5.03;;;14.30;93.00;;;;;;5038331;28;20056;-68
2021/08/14 04:40:51;;;;;;;13.40;5.13;;;14.30;93.00;;;;;;5043132;28;20524;-70
2021/08/14 04:43:17;;;;;;;13.60;4.50;;;14.30;93.00;;;;;;5042993;28;20025;-69
2021/08/14 04:45:43;;;;;;;13.88;4.97;;;14.30;93.00;;;;;;5043173;28;20181;-68
2021/08/14 04:48:08;;;;;;;11.63;4.95;;;14.40;92.90;;;;;;5047044;28;20040;-69
2021/08/14 04:50:34;;;;;;;12.02;4.80;;;14.40;93.00;;;;;;5041087;28;20056;-66
2021/08/14 04:53:00;;;;;;;18.65;4.93;;;14.40;92.80;;;;;;5043417;28;20057;-69
2021/08/14 04:55:25;;;;;;;11.75;4.53;;;14.40;92.80;;;;;;5043235;28;20108;-68
2021/08/14 04:57:51;;;;;;;10.25;4.38;;;14.40;92.70;;;;;;5042847;28;20049;-68
2021/08/14 05:00:16;;;;;;;15.55;4.65;;;14.50;92.70;;;;;;5043352;28;20029;-68
2021/08/14 05:02:42;;;;;;;15.00;4.55;;;14.50;92.60;;;;;;5042983;28;20405;-69
2021/08/14 05:05:08;;;;;;;16.65;5.05;;;14.50;92.60;;;;;;5042305;28;20442;-68
2021/08/14 05:07:34;;;;;;;11.43;4.32;;;14.60;92.50;;;;;;5041079;28;20021;-68
2021/08/14 05:10:00;;;;;;;13.98;4.40;;;14.60;92.50;;;;;;5048960;28;22032;-68
2021/08/14 05:12:27;;;;;;;13.20;4.65;;;14.60;92.30;;;;;;5030436;28;20079;-68
2021/08/14 05:14:52;;;;;;;10.45;4.55;;;14.70;92.00;;;;;;5043151;28;20094;-69
2021/08/14 05:17:18;;;;;;;18.10;4.95;;;14.80;92.10;;;;;;5042369;28;20400;-69
2021/08/14 05:19:43;;;;;;;12.10;4.72;;;14.80;91.90;;;;;;5026496;28;20265;-68
2021/08/14 05:22:09;;;;;;;12.60;4.80;;;14.80;91.70;;;;;;5042267;28;20033;-68
2021/08/14 05:24:34;;;;;;;14.05;4.13;;;14.80;91.80;;;;;;5043378;28;20520;-69
2021/08/14 05:27:00;;;;;;;15.80;4.93;;;14.90;91.70;;;;;;5029305;28;20025;-67
2021/08/14 05:29:26;;;;;;;20.55;4.40;;;15.00;91.60;;;;;;5043016;28;20134;-67
2021/08/14 05:31:51;;;;;;;14.70;4.15;;;15.00;91.60;;;;;;5029368;28;20041;-69
2021/08/14 05:34:17;;;;;;;13.27;4.45;;;15.10;91.50;;;;;;5042954;28;20028;-68
2021/08/14 05:36:42;;;;;;;10.52;4.20;;;15.20;91.40;;;;;;5043179;28;20073;-70
2021/08/14 05:39:08;;;;;;;10.80;4.40;;;15.30;91.30;;;;;;5043113;28;20485;-68
2021/08/14 05:41:39;;;;;;;15.13;3.80;;;15.40;91.20;;;;;;5042831;28;20066;-67
2021/08/14 05:44:05;;;;;;;11.80;4.18;;;15.40;90.70;;;;;;5045748;28;20025;-67
2021/08/14 05:46:31;;;;;;;12.98;3.30;;;15.40;90.70;;;;;;5046887;28;20029;-68
2021/08/14 05:48:56;;;;;;;10.90;3.47;;;15.50;90.50;;;;;;5046065;28;20047;-68
2021/08/14 05:51:24;;;;;;;15.38;4.38;;;15.50;90.10;;;;;;5045644;28;20090;-68
2021/08/14 05:53:49;;;;;;;12.05;3.95;;;15.50;90.40;;;;;;5039375;28;20087;-67
2021/08/14 05:56:15;;;;;;;10.50;4.35;;;15.60;90.50;;;;;;5045949;28;20025;-68
2021/08/14 05:58:41;;;;;;;15.32;4.43;;;15.60;90.30;;;;;;5046390;28;20077;-68
2021/08/14 06:01:07;;;;;;;14.00;4.20;;;15.60;90.20;;;;;;5051855;28;20462;-67
2021/08/14 06:03:34;;;;;;;13.95;4.07;;;15.80;90.00;;;;;;5046490;28;20493;-67
2021/08/14 06:06:00;;;;;;;8.48;3.88;;;15.70;89.70;;;;;;5045673;28;20089;-70
2021/08/14 06:08:26;;;;;;;10.95;4.13;;;15.80;90.30;;;;;;5048530;28;20125;-67
2021/08/14 06:10:51;;;;;;;11.63;4.28;;;15.90;89.90;;;;;;5030116;28;20056;-68
2021/08/14 06:13:17;;;;;;;11.05;3.67;;;15.90;89.90;;;;;;5050418;28;20040;-67
2021/08/14 06:15:42;;;;;;;11.50;3.72;;;15.90;89.70;;;;;;5032535;28;20037;-69
2021/08/14 06:18:11;;;;;;;7.45;3.70;;;15.90;89.70;;;;;;5043765;28;20113;-69
2021/08/14 06:20:37;;;;;;;11.63;4.15;;;16.00;89.70;;;;;;5028715;28;20025;-69
2021/08/14 06:23:03;;;;;;;16.08;4.10;;;15.90;89.90;;;;;;5046410;28;20036;-69
2021/08/14 06:25:28;;;;;;;11.30;3.33;;;16.00;89.70;;;;;;5046976;28;20028;-72
2021/08/14 06:27:54;;;;;;;12.00;3.67;;;16.00;88.90;;;;;;5049713;28;20401;-68
2021/08/14 06:30:20;;;;;;;14.55;3.80;;;16.00;89.20;;;;;;5044702;28;20553;-68
2021/08/14 06:32:45;;;;;;;13.65;4.43;;;16.30;89.40;;;;;;5045488;28;20036;-67
2021/08/14 06:35:11;;;;;;;16.90;3.92;;;16.30;87.90;;;;;;5046619;28;20116;-68
2021/08/14 06:37:41;;;;;;;9.63;3.30;;;16.50;87.60;;;;;;5045899;28;20040;-66
2021/08/14 06:40:07;;;;;;;15.38;3.53;;;16.70;87.50;;;;;;5046730;28;20064;-69
2021/08/14 06:42:33;;;;;;;12.27;4.07;;;16.70;85.60;;;;;;5045622;28;20029;-70
2021/08/14 06:44:59;;;;;;;9.63;3.60;;;16.80;85.60;;;;;;5046541;28;20035;-68
2021/08/14 06:47:24;;;;;;;11.13;3.28;;;16.80;84.70;;;;;;5045587;28;20025;-70
2021/08/14 06:49:50;;;;;;;13.93;3.35;;;16.90;85.50;;;;;;5049742;28;20081;-69
2021/08/14 06:52:15;;;;;;;12.43;3.70;;;16.90;84.90;;;;;;5045575;28;20029;-67
2021/08/14 06:54:41;;;;;;;12.38;3.72;;;16.90;84.70;;;;;;5045748;28;20048;-69
2021/08/14 06:57:06;;;;;;;13.10;3.60;;;16.90;85.30;;;;;;5049215;28;20063;-67
2021/08/14 06:59:32;;;;;;;8.57;3.30;;;17.00;84.90;;;;;;5045816;28;20087;-70
2021/08/14 07:01:57;;;;;;;12.88;3.55;;;16.90;84.60;;;;;;5044421;28;20071;-68
2021/08/14 07:04:23;;;;;;;13.82;3.45;;;17.00;84.20;;;;;;5040619;28;20017;-70
2021/08/14 07:06:49;;;;;;;11.80;3.17;;;17.00;84.10;;;;;;5042254;28;20110;-68
2021/08/14 07:09:14;;;;;;;15.60;3.42;;;17.00;83.70;;;;;;5045989;28;20033;-68
2021/08/14 07:11:45;;;;;;;8.20;3.05;;;16.90;84.50;;;;;;5045801;28;20484;-69
2021/08/14 07:14:10;;;;;;;9.17;3.10;;;17.00;84.20;;;;;;5045697;28;20034;-69
2021/08/14 07:16:36;;;;;;;13.68;3.50;;;17.00;83.20;;;;;;5044827;28;20404;-69
2021/08/14 07:19:02;;;;;;;8.35;2.65;;;17.10;83.80;;;;;;5044731;28;20037;-68
2021/08/14 07:21:28;;;;;;;11.75;3.65;;;17.40;82.60;;;;;;5027099;28;20021;-69
2021/08/14 07:23:54;;;;;;;11.38;3.28;;;17.50;82.30;;;;;;5046422;28;20331;-70
2021/08/14 07:26:20;;;;;;;10.18;3.25;;;17.50;82.50;;;;;;5045981;28;20043;-69
2021/08/14 07:28:46;;;;;;;10.43;3.63;;;17.80;82.60;;;;;;5046541;28;20021;-68
2021/08/14 07:31:11;;;;;;;11.25;2.80;;;17.90;82.80;;;;;;5045974;28;20171;-69
2021/08/14 07:33:37;;;;;;;11.30;3.35;;;18.00;80.50;;;;;;5040478;28;20125;-69
2021/08/14 07:36:05;;;;;;;9.90;3.22;;;18.30;80.90;;;;;;5022752;28;20116;-69
2021/08/14 07:38:31;;;;;;;10.45;3.15;;;18.50;81.20;;;;;;5044613;28;20029;-69
2021/08/14 07:40:56;;;;;;;15.52;3.53;;;18.60;80.00;;;;;;5045656;28;20482;-69
2021/08/14 07:43:22;;;;;;;10.02;2.72;;;18.50;78.80;;;;;;5043417;28;20097;-69
2021/08/14 07:45:47;;;;;;;10.48;2.97;;;18.40;78.50;;;;;;5042974;28;20093;-68
2021/08/14 07:48:13;;;;;;;7.95;2.53;;;18.60;79.40;;;;;;5045411;28;20024;-70
2021/08/14 07:50:38;;;;;;;12.32;3.50;;;18.70;77.20;;;;;;5044628;28;20363;-67
2021/08/14 07:53:05;;;;;;;12.20;2.88;;;18.80;77.80;;;;;;5047528;28;20037;-71
2021/08/14 07:55:31;;;;;;;11.25;2.72;;;18.90;78.30;;;;;;5026332;28;20109;-69
2021/08/14 07:57:57;;;;;;;7.45;3.05;;;19.00;77.40;;;;;;5044229;28;20472;-71
2021/08/14 08:00:25;;;;;;;9.88;2.67;;;19.20;76.70;;;;;;5043626;28;20053;-69
2021/08/14 08:02:51;;;;;;;9.00;2.90;;;19.50;77.00;;;;;;5041566;28;20025;-68
2021/08/14 08:05:16;;;;;;;10.57;3.08;;;19.50;74.80;;;;;;5050593;28;20039;-71
2021/08/14 08:07:45;;;;;;;10.00;2.97;;;19.60;73.70;;;;;;5041757;28;20022;-68
2021/08/14 08:10:19;;;;;;;12.73;2.90;;;19.70;75.20;;;;;;5040226;28;20474;-69
2021/08/14 08:12:45;;;;;;;16.65;3.20;;;19.80;74.80;;;;;;5044064;28;20037;-69
2021/08/14 08:15:13;;;;;;;8.60;2.72;;;20.00;73.70;;;;;;5044628;28;20498;-69
2021/08/14 08:17:39;;;;;;;11.45;3.10;;;20.00;73.80;;;;;;5043255;28;20401;-69
2021/08/14 08:20:06;;;;;;;9.90;3.00;;;20.00;72.60;;;;;;5044370;28;20032;-69
2021/08/14 08:22:32;;;;;;;7.82;2.42;;;20.20;72.10;;;;;;5044155;28;20025;-68
2021/08/14 08:24:57;;;;;;;14.57;2.97;;;20.30;71.90;;;;;;5043885;28;20493;-68
2021/08/14 08:27:23;;;;;;;9.90;2.63;;;20.30;71.20;;;;;;5043608;28;20032;-70
2021/08/14 08:29:49;;;;;;;11.05;2.70;;;20.50;71.50;;;;;;5045700;28;20461;-69
2021/08/14 08:32:15;;;;;;;10.13;2.78;;;20.60;71.20;;;;;;5044142;28;20170;-68
2021/08/14 08:34:40;;;;;;;7.57;3.13;;;20.50;70.10;;;;;;5044232;28;20112;-69
2021/08/14 08:37:06;;;;;;;7.80;2.67;;;20.50;71.40;;;;;;5050802;28;20044;-70
2021/08/14 08:39:32;;;;;;;10.85;2.70;;;20.70;71.70;;;;;;5023930;28;20418;-70
2021/08/14 08:41:59;;;;;;;9.85;3.28;;;20.70;71.00;;;;;;5050680;28;20024;-69
2021/08/14 08:44:25;;;;;;;9.60;3.28;;;20.70;70.20;;;;;;5044175;28;20515;-68
2021/08/14 08:46:51;;;;;;;11.65;2.92;;;20.80;70.50;;;;;;5041716;28;20389;-70
2021/08/14 08:49:19;;;;;;;11.65;3.30;;;20.90;69.10;;;;;;5043500;28;20140;-69
2021/08/14 08:51:45;;;;;;;11.35;3.03;;;20.90;69.40;;;;;;5022679;28;20121;-71
2021/08/14 08:54:13;;;;;;;11.27;3.25;;;21.00;70.10;;;;;;5042372;28;20036;-71
2021/08/14 08:56:39;;;;;;;12.90;3.60;;;21.10;69.30;;;;;;5049335;28;20111;-69
2021/08/14 08:59:05;;;;;;;13.15;3.50;;;21.30;70.20;;;;;;5025972;28;20193;-69
2021/08/14 09:01:30;;;;;;;10.45;3.75;;;21.80;69.30;;;;;;5025238;28;20028;-68
2021/08/14 09:04:23;;;;;;;11.57;2.90;;;22.20;69.00;;;;;;5044137;28;20033;-71
2021/08/14 09:06:49;;;;;;;14.20;2.83;;;22.00;67.50;;;;;;5041250;28;20037;-69
2021/08/14 09:09:14;;;;;;;9.52;2.75;;;22.00;66.10;;;;;;5032639;28;20025;-69
2021/08/14 09:11:51;;;;;;;10.82;3.08;;;22.00;65.60;;;;;;5043026;28;20342;-70
2021/08/14 09:14:17;;;;;;;10.93;2.83;;;21.70;65.90;;;;;;5021944;28;20021;-71
2021/08/14 09:16:43;;;;;;;10.68;3.03;;;21.80;67.10;;;;;;5043355;28;20036;-69
2021/08/14 09:19:23;;;;;;;8.63;2.95;;;22.10;65.60;;;;;;5045196;28;20119;-71
2021/08/14 09:21:49;;;;;;;9.65;2.58;;;22.40;64.10;;;;;;5045544;28;20534;-69
2021/08/14 09:24:32;;;;;;;9.88;2.67;;;22.50;62.70;;;;;;5054077;28;20032;-69
2021/08/14 09:27:00;;;;;;;11.88;2.95;;;22.50;64.20;;;;;;5045057;28;20085;-69
2021/08/14 09:29:33;;;;;;;12.05;3.00;;;22.20;64.00;;;;;;5041912;28;20032;-70
2021/08/14 09:32:01;;;;;;;11.18;2.97;;;22.40;66.10;;;;;;5046965;28;20091;-69
2021/08/14 09:34:27;;;;;;;10.18;2.60;;;22.60;63.20;;;;;;5047092;28;20029;-69
2021/08/14 09:37:06;;;;;;;7.45;2.65;;;22.30;64.40;;;;;;5047500;28;20037;-69
2021/08/14 09:39:48;;;;;;;11.02;2.40;;;22.30;64.90;;;;;;5047217;28;20457;-68
2021/08/14 09:42:13;;;;;;;12.88;2.80;;;22.40;64.50;;;;;;5047197;28;20029;-69
2021/08/14 09:44:39;;;;;;;13.38;3.05;;;22.20;65.00;;;;;;5042095;28;20094;-69
2021/08/14 09:47:11;;;;;;;7.70;2.50;;;22.10;64.60;;;;;;5046868;28;20396;-69
2021/08/14 09:49:55;;;;;;;7.93;2.55;;;21.90;65.40;;;;;;5048280;28;20043;-70
2021/08/14 09:52:23;;;;;;;8.95;2.63;;;21.90;65.20;;;;;;5049904;28;20108;-72
2021/08/14 09:54:49;;;;;;;9.60;2.80;;;21.90;65.10;;;;;;5042844;28;20080;-69
2021/08/14 09:57:16;;;;;;;8.60;2.53;;;22.00;64.70;;;;;;5045686;28;20090;-70
2021/08/14 09:59:45;;;;;;;8.93;2.80;;;22.30;64.20;;;;;;5045923;28;20123;-68
2021/08/14 10:02:16;;;;;;;9.02;2.60;;;22.40;63.50;;;;;;5046430;28;20614;-69
2021/08/14 10:04:45;;;;;;;11.80;2.72;;;22.90;62.30;;;;;;5039727;28;20465;-69
2021/08/14 10:07:13;;;;;;;7.28;2.53;;;22.90;62.60;;;;;;5049041;28;20396;-69
2021/08/14 10:09:40;;;;;;;8.20;2.53;;;23.00;60.40;;;;;;5047171;28;20338;-69
2021/08/14 10:12:06;;;;;;;9.55;2.42;;;22.90;63.60;;;;;;5029614;28;20045;-69
2021/08/14 10:14:32;;;;;;;7.72;2.53;;;23.00;60.90;;;;;;5046981;28;20183;-70
2021/08/14 10:16:58;;;;;;;11.93;3.10;;;23.60;61.90;;;;;;5044530;28;20029;-69
2021/08/14 10:19:24;;;;;;;12.88;2.90;;;23.60;60.60;;;;;;5045067;28;20021;-71
2021/08/14 10:21:54;;;;;;;12.18;2.85;;;23.40;61.00;;;;;;5046211;28;20120;-69
2021/08/14 10:24:21;;;;;;;7.05;2.40;;;23.10;59.50;;;;;;5027535;28;20078;-70
2021/08/14 10:26:47;;;;;;;11.15;2.67;;;23.20;60.00;;;;;;5045843;28;20883;-71
2021/08/14 10:29:16;;;;;;;11.50;2.75;;;23.00;60.80;;;;;;5046174;28;20090;-68
2021/08/14 10:31:44;;;;;;;10.23;3.22;;;22.90;61.40;;;;;;5045601;28;20045;-69
2021/08/14 10:34:13;;;;;;;8.07;2.78;;;22.60;60.30;;;;;;5045902;28;20069;-70
2021/08/14 10:36:42;;;;;;;8.02;2.95;;;22.90;60.80;;;;;;5042184;28;20105;-71
2021/08/14 10:39:23;;;;;;;10.25;2.38;;;23.00;60.40;;;;;;5045784;28;20124;-70
2021/08/14 10:41:53;;;;;;;10.00;2.08;;;23.10;60.00;;;;;;5044706;28;20025;-71
2021/08/14 10:44:47;;;;;;;9.52;2.85;;;23.30;59.60;;;;;;5046196;28;20095;-70
2021/08/14 10:47:46;;;;;;;11.48;2.72;;;23.70;59.00;;;;;;5042823;28;20017;-68
2021/08/14 10:50:30;;;;;;;8.32;2.33;;;23.90;58.30;;;;;;4999877;28;20037;-69
2021/08/14 10:53:11;;;;;;;9.13;2.53;;;24.10;57.70;;;;;;5041959;28;20060;-69
2021/08/14 10:55:42;;;;;;;8.57;2.15;;;24.50;56.40;;;;;;5045817;28;20481;-69
2021/08/14 10:58:23;;;;;;;9.65;2.28;;;24.50;56.60;;;;;;5045293;28;20595;-69
2021/08/14 11:00:49;;;;;;;;;;;24.40;55.80;;;;;;5041610;28;20044;-69
2021/08/14 11:03:18;;;;;;;16.23;3.00;;;24.30;55.60;;;;;;5044145;28;19908;-69
2021/08/14 11:05:45;;;;;;;7.22;2.28;;;23.90;57.60;;;;;;5045325;28;20123;-69
2021/08/14 11:08:23;;;;;;;7.63;2.58;;;23.90;56.40;;;;;;5035641;28;20111;-70
2021/08/14 11:10:49;;;;;;;13.27;2.40;;;23.80;57.50;;;;;;5045483;28;20029;-70
2021/08/14 11:13:41;;;;;;;7.43;2.67;;;24.10;56.20;;;;;;5045079;28;20032;-68
2021/08/14 11:16:07;;;;;;;10.75;2.88;;;24.30;54.30;;;;;;5038099;28;20050;-70
2021/08/14 11:18:58;;;;;;;8.05;2.35;;;24.00;57.10;;;;;;5044781;28;20041;-69
2021/08/14 11:21:41;;;;;;;;;;;24.10;56.50;;;;;;5042874;28;20104;-69
2021/08/14 11:24:07;;;;;;;5.63;2.35;;;24.60;55.60;;;;;;5042186;28;19981;-73
2021/08/14 11:26:35;;;;;;;8.98;2.05;;;24.50;51.80;;;;;;5044976;28;20093;-69
2021/08/14 11:29:01;;;;;;;8.65;2.58;;;24.40;52.90;;;;;;5045193;28;20067;-70
2021/08/14 11:31:28;;;;;;;5.00;1.73;;;25.00;53.00;;;;;;5044712;28;20095;-70
2021/08/14 11:34:01;;;;;;;7.60;2.17;;;25.50;50.20;;;;;;5045201;28;20028;-70
2021/08/14 11:36:29;;;;;;;7.57;2.08;;;25.70;51.40;;;;;;5044579;28;20043;-70
2021/08/14 11:39:01;;;;;;;6.38;2.50;;;25.80;51.50;;;;;;5043748;28;20056;-70
2021/08/14 11:41:27;;;;;;;10.20;1.77;;;25.00;51.00;;;;;;5042862;28;20124;-69
2021/08/14 11:43:59;;;;;;;8.13;2.30;;;24.80;52.70;;;;;;5044549;28;20500;-70
2021/08/14 11:46:25;;;;;;;7.97;2.38;;;25.00;53.70;;;;;;5044138;28;20017;-69
2021/08/14 11:48:50;;;;;;;9.88;2.70;;;25.10;53.20;;;;;;5044451;28;20021;-70
2021/08/14 11:51:21;;;;;;;5.63;2.30;;;24.90;53.40;;;;;;5042933;28;20041;-69
2021/08/14 11:53:48;;;;;;;7.93;2.33;;;25.00;52.80;;;;;;5041409;28;20051;-70
2021/08/14 11:56:16;;;;;;;7.65;2.10;;;24.70;53.70;;;;;;5044152;28;20029;-69
2021/08/14 11:58:42;;;;;;;5.90;2.10;;;24.70;53.90;;;;;;5044241;28;20036;-71
2021/08/14 12:01:11;;;;;;;8.73;2.67;;;24.90;55.00;;;;;;5044945;28;20025;-70
2021/08/14 12:03:36;;;;;;;8.38;2.55;;;25.00;53.30;;;;;;5043343;28;20040;-69
2021/08/14 12:06:06;;;;;;;6.90;2.10;;;24.70;52.80;;;;;;5044514;28;20020;-71
2021/08/14 12:08:35;;;;;;;6.90;2.23;;;24.90;53.50;;;;;;5049795;28;20040;-70
2021/08/14 12:11:03;;;;;;;6.97;2.40;;;24.60;53.80;;;;;;5043033;28;20036;-72
2021/08/14 12:13:29;;;;;;;7.93;2.17;;;24.10;55.30;;;;;;5044339;28;20044;-72
2021/08/14 12:16:16;;;;;;;9.77;2.53;;;24.00;56.30;;;;;;5044066;28;20374;-69
2021/08/14 12:18:43;;;;;;;8.88;2.22;;;23.60;56.50;;;;;;5042822;28;20052;-70
2021/08/14 12:21:10;;;;;;;5.72;2.05;;;23.80;55.90;;;;;;5044325;28;20037;-73
2021/08/14 12:23:38;;;;;;;8.07;2.35;;;23.90;56.70;;;;;;5045123;28;20031;-71
2021/08/14 12:26:25;;;;;;;7.80;2.55;;;24.10;55.90;;;;;;5043428;28;20037;-70
2021/08/14 12:29:03;;;;;;;8.15;2.45;;;23.80;56.20;;;;;;5035534;28;20082;-69
2021/08/14 12:31:30;;;;;;;12.32;2.97;;;23.80;57.00;;;;;;5043280;28;20334;-70
2021/08/14 12:33:57;;;;;;;10.10;2.42;;;24.20;56.70;;;;;;5043922;28;20104;-69
2021/08/14 12:36:33;;;;;;;5.72;1.98;;;24.80;55.20;;;;;;5042016;28;20051;-69
2021/08/14 12:38:59;;;;;;;9.70;3.00;;;24.80;53.70;;;;;;5037809;28;20024;-69
2021/08/14 12:41:32;;;;;;;13.57;2.70;;;25.20;53.70;;;;;;5043544;28;20509;-69